createdAt,value
2017-04-03T00:00:56.489Z,42.56
2017-04-03T00:01:56.834Z,42.75
2017-04-03T00:02:56.858Z,42.75
2017-04-03T00:03:56.887Z,42.85
2017-04-03T00:04:56.916Z,42.66
2017-04-03T00:05:56.973Z,42.66
2017-04-03T00:06:56.661Z,42.66
2017-04-03T00:07:56.995Z,42.94
2017-04-03T00:08:57.027Z,42.56
2017-04-03T00:09:57.055Z,42.36
2017-04-03T00:10:57.082Z,42.66
2017-04-03T00:11:57.109Z,42.66
2017-04-03T00:12:57.137Z,42.75
2017-04-03T00:13:56.850Z,42.85
2017-04-03T00:14:57.187Z,42.66
2017-04-03T00:15:57.211Z,42.66
2017-04-03T00:16:57.297Z,42.66
2017-04-03T00:17:57.277Z,42.75
2017-04-03T00:18:56.990Z,42.85
2017-04-03T00:19:57.335Z,42.66
2017-04-03T00:20:57.351Z,42.56
2017-04-03T00:21:57.393Z,42.66
2017-04-03T00:22:57.417Z,42.85
2017-04-03T00:23:57.440Z,42.85
2017-04-03T00:24:57.159Z,42.75
2017-04-03T00:25:57.491Z,42.85
2017-04-03T00:26:57.525Z,42.75
2017-04-03T00:27:57.553Z,42.75
2017-04-03T00:28:57.579Z,42.85
2017-04-03T00:29:57.294Z,42.75
2017-04-03T00:30:57.319Z,42.75
2017-04-03T00:31:57.664Z,42.75
2017-04-03T00:32:57.690Z,42.36
2017-04-03T00:33:57.405Z,42.75
2017-04-03T00:34:57.430Z,42.36
2017-04-03T00:35:57.770Z,42.66
2017-04-03T00:36:57.800Z,42.85
2017-04-03T00:37:57.829Z,42.75
2017-04-03T00:38:57.853Z,42.75
2017-04-03T00:39:57.562Z,42.66
2017-04-03T00:40:57.904Z,42.66
2017-04-03T00:41:57.940Z,42.75
2017-04-03T00:42:57.965Z,42.75
2017-04-03T00:43:57.992Z,42.56
2017-04-03T00:44:58.015Z,42.75
2017-04-03T00:45:58.057Z,42.66
2017-04-03T00:46:58.075Z,42.56
2017-04-03T00:47:58.105Z,42.85
2017-04-03T00:48:58.133Z,42.75
2017-04-03T00:49:57.849Z,42.75
2017-04-03T00:50:57.869Z,42.75
2017-04-03T00:51:58.215Z,42.85
2017-04-03T00:52:58.240Z,42.66
2017-04-03T00:53:58.268Z,42.46
2017-04-03T00:54:58.292Z,42.75
2017-04-03T00:55:58.316Z,42.63
2017-04-03T00:56:58.350Z,42.46
2017-04-03T00:57:58.377Z,42.85
2017-04-03T00:58:58.405Z,42.83
2017-04-03T00:59:58.434Z,42.75
2017-04-03T01:00:58.463Z,42.66
2017-04-03T01:01:58.203Z,42.54
2017-04-03T01:02:58.516Z,42.56
2017-04-03T01:03:58.234Z,42.73
2017-04-03T01:04:58.826Z,42.75
2017-04-03T01:05:58.282Z,42.56
2017-04-03T01:06:58.664Z,42.75
2017-04-03T01:07:58.656Z,42.75
2017-04-03T01:08:58.371Z,42.75
2017-04-03T01:09:58.960Z,42.75
2017-04-03T01:10:58.733Z,42.75
2017-04-03T01:11:58.454Z,42.75
2017-04-03T01:12:58.795Z,42.83
2017-04-03T01:13:58.819Z,43.04
2017-04-03T01:14:59.100Z,42.75
2017-04-03T01:15:58.558Z,42.63
2017-04-03T01:16:58.903Z,42.73
2017-04-03T01:17:58.928Z,42.63
2017-04-03T01:18:58.955Z,42.83
2017-04-03T01:19:59.241Z,42.83
2017-04-03T01:20:58.695Z,42.73
2017-04-03T01:21:59.038Z,42.83
2017-04-03T01:22:59.063Z,42.73
2017-04-03T01:23:59.091Z,42.63
2017-04-03T01:24:59.059Z,42.73
2017-04-03T01:25:59.145Z,43.02
2017-04-03T01:26:59.177Z,42.83
2017-04-03T01:27:59.202Z,42.54
2017-04-03T01:28:59.231Z,42.73
2017-04-03T01:29:59.194Z,42.83
2017-04-03T01:30:59.284Z,42.73
2017-04-03T01:31:59.313Z,42.73
2017-04-03T01:32:59.342Z,42.75
2017-04-03T01:33:59.368Z,42.54
2017-04-03T01:34:59.649Z,42.83
2017-04-03T01:35:59.421Z,42.63
2017-04-03T01:36:59.451Z,42.44
2017-04-03T01:37:59.477Z,42.54
2017-04-03T01:38:59.505Z,42.54
2017-04-03T01:39:59.785Z,42.63
2017-04-03T01:40:59.558Z,43.02
2017-04-03T01:41:59.589Z,42.63
2017-04-03T01:42:59.614Z,42.73
2017-04-03T01:43:59.643Z,42.83
2017-04-03T01:44:59.398Z,43.02
2017-04-03T01:45:59.729Z,42.83
2017-04-03T01:46:59.725Z,42.73
2017-04-03T01:47:59.750Z,42.63
2017-04-03T01:48:59.470Z,42.54
2017-04-03T01:49:59.491Z,42.73
2017-04-03T01:50:59.525Z,43.02
2017-04-03T01:51:59.545Z,42.63
2017-04-03T01:52:59.890Z,42.73
2017-04-03T01:53:59.918Z,42.73
2017-04-03T01:54:59.631Z,42.73
2017-04-03T01:55:59.972Z,42.73
2017-04-03T01:57:00.005Z,42.73
2017-04-03T01:58:00.026Z,42.44
2017-04-03T01:58:59.742Z,42.63
2017-04-03T02:00:00.079Z,42.73
2017-04-03T02:01:00.108Z,42.73
2017-04-03T02:02:00.128Z,42.73
2017-04-03T02:03:00.160Z,42.73
2017-04-03T02:04:00.190Z,42.54
2017-04-03T02:05:00.218Z,42.54
2017-04-03T02:06:00.246Z,42.54
2017-04-03T02:07:00.272Z,42.83
2017-04-03T02:07:59.989Z,42.63
2017-04-03T02:09:00.326Z,42.54
2017-04-03T02:10:00.355Z,42.54
2017-04-03T02:11:00.390Z,42.54
2017-04-03T02:12:00.092Z,42.63
2017-04-03T02:13:00.119Z,42.73
2017-04-03T02:14:00.465Z,42.63
2017-04-03T02:15:00.494Z,42.54
2017-04-03T02:16:00.211Z,42.54
2017-04-03T02:17:00.548Z,42.83
2017-04-03T02:18:00.572Z,42.44
2017-04-03T02:19:00.600Z,42.35
2017-04-03T02:20:00.629Z,42.63
2017-04-03T02:21:00.655Z,42.73
2017-04-03T02:22:00.675Z,42.63
2017-04-03T02:23:00.708Z,42.73
2017-04-03T02:24:00.740Z,42.83
2017-04-03T02:25:00.764Z,42.73
2017-04-03T02:26:00.791Z,42.83
2017-04-03T02:27:00.819Z,42.73
2017-04-03T02:28:00.848Z,42.83
2017-04-03T02:29:00.871Z,42.73
2017-04-03T02:30:00.901Z,42.63
2017-04-03T02:31:00.922Z,42.83
2017-04-03T02:32:00.962Z,42.63
2017-04-03T02:33:00.982Z,42.73
2017-04-03T02:34:01.004Z,42.83
2017-04-03T02:35:01.036Z,42.83
2017-04-03T02:36:01.071Z,43.02
2017-04-03T02:37:00.774Z,42.54
2017-04-03T02:38:01.118Z,42.63
2017-04-03T02:39:01.145Z,42.73
2017-04-03T02:40:01.173Z,42.73
2017-04-03T02:41:01.201Z,42.35
2017-04-03T02:42:01.223Z,42.73
2017-04-03T02:43:01.255Z,42.83
2017-04-03T02:44:01.283Z,42.63
2017-04-03T02:45:01.308Z,42.93
2017-04-03T02:46:01.338Z,43.02
2017-04-03T02:47:01.362Z,42.63
2017-04-03T02:48:01.395Z,42.44
2017-04-03T02:49:01.427Z,42.71
2017-04-03T02:50:01.443Z,42.83
2017-04-03T02:51:01.472Z,42.54
2017-04-03T02:52:01.498Z,42.52
2017-04-03T02:53:01.526Z,42.52
2017-04-03T02:54:01.244Z,42.44
2017-04-03T02:55:01.581Z,42.73
2017-04-03T02:56:01.609Z,42.71
2017-04-03T02:57:01.634Z,42.83
2017-04-03T02:58:01.662Z,42.63
2017-04-03T02:59:01.688Z,42.61
2017-04-03T03:00:01.723Z,42.73
2017-04-03T03:01:01.743Z,42.71
2017-04-03T03:02:01.777Z,42.61
2017-04-03T03:03:01.798Z,42.61
2017-04-03T03:04:01.822Z,42.61
2017-04-03T03:05:01.855Z,42.52
2017-04-03T03:06:01.884Z,42.61
2017-04-03T03:07:01.905Z,42.54
2017-04-03T03:08:01.612Z,42.61
2017-04-03T03:09:01.962Z,42.61
2017-04-03T03:10:01.997Z,42.61
2017-04-03T03:11:01.705Z,42.61
2017-04-03T03:12:02.045Z,43.29
2017-04-03T03:13:01.766Z,43.29
2017-04-03T03:14:02.098Z,43.29
2017-04-03T03:15:01.810Z,43.29
2017-04-03T03:16:02.151Z,43.29
2017-04-03T03:17:01.868Z,43.29
2017-04-03T03:18:01.894Z,43.29
2017-04-03T03:19:02.238Z,43.29
2017-04-03T03:20:02.263Z,43.19
2017-04-03T03:21:01.975Z,43.31
2017-04-03T03:22:02.004Z,43.29
2017-04-03T03:23:02.336Z,42.52
2017-04-03T03:24:02.060Z,42.52
2017-04-03T03:25:02.086Z,43.38
2017-04-03T03:26:02.667Z,43.29
2017-04-03T03:27:02.446Z,43.38
2017-04-03T03:28:02.477Z,43.29
2017-04-03T03:29:02.509Z,42.71
2017-04-03T03:30:02.534Z,43.38
2017-04-03T03:31:02.806Z,43.29
2017-04-03T03:32:02.591Z,43.29
2017-04-03T03:33:02.616Z,43.29
2017-04-03T03:34:02.325Z,43.29
2017-04-03T03:35:02.713Z,43.29
2017-04-03T03:36:02.942Z,42.61
2017-04-03T03:37:02.723Z,42.71
2017-04-03T03:38:02.746Z,43.29
2017-04-03T03:39:02.469Z,42.52
2017-04-03T03:40:02.802Z,43.29
2017-04-03T03:41:03.074Z,43.29
2017-04-03T03:42:02.854Z,43.29
2017-04-03T03:43:02.883Z,43.29
2017-04-03T03:44:02.596Z,43.29
2017-04-03T03:45:02.937Z,43.29
2017-04-03T03:46:03.217Z,43.29
2017-04-03T03:47:02.989Z,43.29
2017-04-03T03:48:03.020Z,43.19
2017-04-03T03:49:03.049Z,43.19
2017-04-03T03:50:03.072Z,43.29
2017-04-03T03:51:03.040Z,43.19
2017-04-03T03:52:03.127Z,43.29
2017-04-03T03:53:03.155Z,43.29
2017-04-03T03:54:03.180Z,43.29
2017-04-03T03:55:03.206Z,43.29
2017-04-03T03:56:03.488Z,43.29
2017-04-03T03:57:03.259Z,43.29
2017-04-03T03:58:02.979Z,43.19
2017-04-03T03:59:03.312Z,43.29
2017-04-03T04:00:03.345Z,43.29
2017-04-03T04:01:03.373Z,43.19
2017-04-03T04:02:03.086Z,43.19
2017-04-03T04:03:03.432Z,43.29
2017-04-03T04:04:03.141Z,42.8
2017-04-03T04:05:03.479Z,43.29
2017-04-03T04:06:03.501Z,43.38
2017-04-03T04:07:03.220Z,43.19
2017-04-03T04:08:03.563Z,43.1
2017-04-03T04:09:03.586Z,43.1
2017-04-03T04:10:03.615Z,43.1
2017-04-03T04:11:03.333Z,43.38
2017-04-03T04:12:03.669Z,43.1
2017-04-03T04:13:03.387Z,43.19
2017-04-03T04:14:03.724Z,43.19
2017-04-03T04:15:03.751Z,43.38
2017-04-03T04:16:03.776Z,43.1
2017-04-03T04:17:03.806Z,43.19
2017-04-03T04:18:03.831Z,43.29
2017-04-03T04:19:03.859Z,43.38
2017-04-03T04:20:03.568Z,43.19
2017-04-03T04:21:03.908Z,43
2017-04-03T04:22:03.946Z,43.1
2017-04-03T04:23:03.971Z,43.1
2017-04-03T04:24:03.993Z,43.1
2017-04-03T04:25:04.010Z,43
2017-04-03T04:26:04.044Z,43.1
2017-04-03T04:27:04.073Z,43.19
2017-04-03T04:28:03.786Z,43
2017-04-03T04:29:04.127Z,43.1
2017-04-03T04:30:03.843Z,43.1
2017-04-03T04:31:04.180Z,43.1
2017-04-03T04:32:03.897Z,42.8
2017-04-03T04:33:03.930Z,43.1
2017-04-03T04:34:04.262Z,43
2017-04-03T04:35:04.287Z,43
2017-04-03T04:36:04.316Z,42.9
2017-04-03T04:37:04.343Z,43.1
2017-04-03T04:38:04.376Z,43
2017-04-03T04:39:04.396Z,43.1
2017-04-03T04:40:04.423Z,42.9
2017-04-03T04:41:04.136Z,43.19
2017-04-03T04:42:04.169Z,43.1
2017-04-03T04:43:04.512Z,42.9
2017-04-03T04:44:04.218Z,43.1
2017-04-03T04:45:04.559Z,43.1
2017-04-03T04:46:04.588Z,43.1
2017-04-03T04:47:04.615Z,43.19
2017-04-03T04:48:04.329Z,43.19
2017-04-03T04:49:04.358Z,43
2017-04-03T04:50:04.382Z,42.8
2017-04-03T04:51:04.723Z,42.8
2017-04-03T04:52:04.441Z,43.19
2017-04-03T04:53:04.776Z,43.29
2017-04-03T04:54:04.806Z,43.29
2017-04-03T04:55:04.831Z,43.1
2017-04-03T04:56:04.540Z,42.52
2017-04-03T04:57:04.883Z,43.19
2017-04-03T04:58:04.916Z,43.38
2017-04-03T04:59:04.939Z,43.31
2017-04-03T05:00:04.965Z,43.29
2017-04-03T05:01:04.986Z,42.52
2017-04-03T05:02:04.709Z,42.61
2017-04-03T05:03:05.048Z,42.71
2017-04-03T05:04:04.761Z,42.61
2017-04-03T05:05:05.102Z,42.52
2017-04-03T05:06:05.123Z,42.54
2017-04-03T05:07:04.844Z,42.8
2017-04-03T05:08:04.867Z,43.19
2017-04-03T05:09:05.209Z,43.12
2017-04-03T05:10:04.930Z,42.73
2017-04-03T05:11:05.262Z,42.63
2017-04-03T05:12:05.291Z,43.29
2017-04-03T05:13:04.999Z,43.58
2017-04-03T05:14:05.345Z,42.93
2017-04-03T05:15:05.375Z,43
2017-04-03T05:16:05.397Z,42.93
2017-04-03T05:17:05.675Z,43
2017-04-03T05:18:05.140Z,43.19
2017-04-03T05:19:05.164Z,43.12
2017-04-03T05:20:05.192Z,42.9
2017-04-03T05:21:05.537Z,43
2017-04-03T05:22:05.809Z,43.02
2017-04-03T05:23:05.587Z,43.02
2017-04-03T05:24:05.300Z,43.02
2017-04-03T05:25:05.368Z,43.1
2017-04-03T05:26:05.663Z,43.02
2017-04-03T05:27:05.942Z,42.9
2017-04-03T05:28:05.727Z,42.93
2017-04-03T05:29:05.756Z,43.21
2017-04-03T05:30:05.780Z,42.63
2017-04-03T05:31:05.490Z,43.12
2017-04-03T05:32:06.082Z,42.73
2017-04-03T05:33:05.850Z,42.73
2017-04-03T05:34:05.879Z,43.5
2017-04-03T05:35:05.912Z,42.93
2017-04-03T05:36:05.932Z,43.12
2017-04-03T05:37:05.905Z,43.5
2017-04-03T05:38:05.674Z,42.63
2017-04-03T05:39:06.019Z,43.02
2017-04-03T05:40:06.045Z,43.21
2017-04-03T05:41:06.068Z,43.21
2017-04-03T05:42:06.037Z,43.21
2017-04-03T05:43:06.126Z,43.31
2017-04-03T05:44:05.842Z,43.5
2017-04-03T05:45:06.188Z,43.5
2017-04-03T05:46:06.208Z,43.21
2017-04-03T05:47:06.490Z,43.5
2017-04-03T05:48:05.949Z,43.5
2017-04-03T05:49:06.291Z,43.5
2017-04-03T05:50:06.008Z,43.21
2017-04-03T05:51:06.343Z,43.5
2017-04-03T05:52:06.309Z,43.21
2017-04-03T05:53:06.399Z,43.31
2017-04-03T05:54:06.114Z,43.21
2017-04-03T05:55:06.452Z,43.31
2017-04-03T05:56:06.480Z,43.02
2017-04-03T05:57:06.765Z,43.02
2017-04-03T05:58:06.218Z,43.21
2017-04-03T05:59:06.247Z,43.12
2017-04-03T06:00:06.583Z,43.12
2017-04-03T06:01:06.619Z,42.83
2017-04-03T06:02:06.582Z,43.31
2017-04-03T06:03:06.669Z,43.21
2017-04-03T06:04:06.701Z,42.73
2017-04-03T06:05:06.720Z,43.6
2017-04-03T06:06:06.747Z,42.83
2017-04-03T06:07:07.036Z,43.5
2017-04-03T06:08:06.797Z,43.5
2017-04-03T06:09:06.517Z,43.6
2017-04-03T06:10:06.855Z,43.12
2017-04-03T06:11:06.883Z,43.5
2017-04-03T06:12:06.850Z,42.83
2017-04-03T06:13:06.625Z,43.5
2017-04-03T06:14:06.963Z,43.02
2017-04-03T06:15:06.994Z,43.02
2017-04-03T06:16:07.023Z,42.93
2017-04-03T06:17:07.298Z,43.21
2017-04-03T06:18:07.072Z,42.83
2017-04-03T06:19:06.790Z,43.12
2017-04-03T06:20:07.131Z,43.02
2017-04-03T06:21:07.171Z,43.21
2017-04-03T06:22:07.123Z,43.12
2017-04-03T06:23:07.207Z,43.21
2017-04-03T06:24:06.925Z,43.31
2017-04-03T06:25:06.955Z,42.54
2017-04-03T06:26:07.291Z,42.63
2017-04-03T06:27:07.571Z,42.83
2017-04-03T06:28:07.348Z,42.63
2017-04-03T06:29:07.374Z,42.73
2017-04-03T06:30:07.402Z,42.54
2017-04-03T06:31:07.426Z,42.83
2017-04-03T06:32:07.454Z,42.63
2017-04-03T06:33:07.172Z,42.44
2017-04-03T06:34:07.200Z,42.63
2017-04-03T06:35:07.543Z,42.54
2017-04-03T06:36:07.567Z,42.54
2017-04-03T06:37:07.592Z,42.63
2017-04-03T06:38:07.619Z,42.63
2017-04-03T06:39:07.332Z,42.54
2017-04-03T06:40:07.677Z,42.35
2017-04-03T06:41:07.702Z,42.54
2017-04-03T06:42:07.728Z,42.54
2017-04-03T06:43:07.443Z,42.73
2017-04-03T06:44:07.776Z,42.63
2017-04-03T06:45:07.808Z,42.63
2017-04-03T06:46:07.832Z,42.73
2017-04-03T06:47:07.862Z,42.63
2017-04-03T06:48:07.584Z,42.54
2017-04-03T06:49:07.908Z,42.73
2017-04-03T06:50:07.945Z,42.15
2017-04-03T06:51:07.970Z,42.15
2017-04-03T06:52:08.002Z,42.54
2017-04-03T06:53:08.022Z,42.15
2017-04-03T06:54:08.047Z,42.35
2017-04-03T06:55:08.082Z,42.35
2017-04-03T06:56:07.802Z,42.35
2017-04-03T06:57:08.134Z,42.44
2017-04-03T06:58:08.161Z,42.15
2017-04-03T06:59:08.183Z,42.44
2017-04-03T07:00:08.216Z,42.35
2017-04-03T07:01:08.241Z,42.15
2017-04-03T07:02:08.271Z,42.44
2017-04-03T07:03:08.296Z,42.54
2017-04-03T07:04:08.322Z,42.05
2017-04-03T07:05:08.349Z,42.44
2017-04-03T07:06:08.377Z,42.15
2017-04-03T07:07:08.406Z,42.25
2017-04-03T07:08:08.121Z,42.44
2017-04-03T07:09:08.458Z,42.35
2017-04-03T07:10:08.479Z,42.25
2017-04-03T07:11:08.521Z,42.25
2017-04-03T07:12:08.538Z,42.35
2017-04-03T07:13:08.274Z,42.25
2017-04-03T07:14:08.274Z,42.44
2017-04-03T07:15:08.624Z,42.54
2017-04-03T07:16:08.649Z,42.35
2017-04-03T07:17:08.678Z,42.44
2017-04-03T07:18:08.705Z,42.15
2017-04-03T07:19:08.726Z,42.15
2017-04-03T07:20:08.765Z,41.28
2017-04-03T07:21:08.784Z,41.19
2017-04-03T07:22:08.500Z,42.15
2017-04-03T07:23:08.842Z,42.15
2017-04-03T07:24:08.554Z,41.77
2017-04-03T07:25:08.899Z,42.05
2017-04-03T07:26:08.920Z,41.96
2017-04-03T07:27:08.948Z,42.15
2017-04-03T07:28:08.973Z,40.8
2017-04-03T07:29:08.999Z,40.8
2017-04-03T07:30:08.714Z,41.48
2017-04-03T07:31:09.061Z,41.96
2017-04-03T07:32:09.084Z,41.67
2017-04-03T07:33:09.117Z,42.05
2017-04-03T07:34:09.133Z,41.77
2017-04-03T07:35:09.159Z,41.48
2017-04-03T07:36:09.190Z,41.67
2017-04-03T07:37:09.218Z,41.48
2017-04-03T07:38:09.240Z,41.38
2017-04-03T07:39:09.272Z,41.38
2017-04-03T07:40:09.303Z,41.77
2017-04-03T07:41:09.327Z,41.86
2017-04-03T07:42:09.040Z,41.11
2017-04-03T07:43:09.625Z,41.5
2017-04-03T07:44:09.098Z,41.4
2017-04-03T07:45:09.434Z,41.28
2017-04-03T07:46:09.463Z,41.2
2017-04-03T07:47:09.176Z,41.4
2017-04-03T07:48:09.454Z,41.69
2017-04-03T07:49:09.233Z,41.5
2017-04-03T07:50:09.264Z,41.6
2017-04-03T07:51:09.602Z,41.3
2017-04-03T07:52:09.627Z,40.82
2017-04-03T07:53:09.908Z,41.2
2017-04-03T07:54:09.677Z,41.6
2017-04-03T07:55:09.710Z,39.47
2017-04-03T07:56:09.738Z,40.05
2017-04-03T07:57:09.763Z,39.76
2017-04-03T07:58:10.039Z,40.53
2017-04-03T07:59:09.821Z,40.82
2017-04-03T08:00:09.532Z,41.11
2017-04-03T08:01:09.561Z,41.02
2017-04-03T08:02:09.903Z,40.82
2017-04-03T08:03:10.179Z,40.53
2017-04-03T08:04:09.645Z,40.63
2017-04-03T08:05:09.986Z,40.82
2017-04-03T08:06:10.014Z,41.11
2017-04-03T08:07:10.038Z,41.3
2017-04-03T08:08:10.315Z,40.63
2017-04-03T08:09:09.785Z,40.92
2017-04-03T08:10:10.120Z,40.72
2017-04-03T08:11:10.145Z,40.05
2017-04-03T08:12:10.186Z,40.15
2017-04-03T08:13:10.455Z,40.82
2017-04-03T08:14:10.224Z,40.82
2017-04-03T08:15:10.257Z,40.05
2017-04-03T08:16:10.286Z,38.62
2017-04-03T08:17:09.995Z,40.07
2017-04-03T08:18:10.595Z,39.66
2017-04-03T08:19:10.368Z,40.15
2017-04-03T08:20:10.393Z,40.07
2017-04-03T08:21:10.110Z,40.17
2017-04-03T08:22:10.134Z,39.95
2017-04-03T08:23:10.476Z,39.28
2017-04-03T08:24:10.503Z,39.95
2017-04-03T08:25:10.528Z,39.11
2017-04-03T08:26:10.549Z,39.29
2017-04-03T08:27:10.590Z,40.15
2017-04-03T08:28:10.604Z,39.76
2017-04-03T08:29:10.328Z,39.97
2017-04-03T08:30:10.666Z,39.09
2017-04-03T08:31:10.684Z,38.81
2017-04-03T08:32:10.721Z,39.28
2017-04-03T08:33:10.755Z,39.57
2017-04-03T08:34:10.779Z,39.09
2017-04-03T08:35:10.805Z,39.66
2017-04-03T08:36:10.828Z,38.89
2017-04-03T08:37:10.857Z,39.18
2017-04-03T08:38:10.574Z,38.81
2017-04-03T08:39:10.603Z,39.09
2017-04-03T08:40:10.939Z,39.01
2017-04-03T08:41:10.968Z,39.49
2017-04-03T08:42:10.996Z,38.7
2017-04-03T08:43:11.030Z,38.99
2017-04-03T08:44:11.049Z,39.18
2017-04-03T08:45:11.080Z,39.01
2017-04-03T08:46:11.100Z,39.59
2017-04-03T08:47:11.133Z,39.29
2017-04-03T08:48:11.162Z,38.62
2017-04-03T08:49:11.189Z,39.2
2017-04-03T08:50:11.213Z,38.91
2017-04-03T08:51:11.240Z,38.81
2017-04-03T08:52:11.268Z,38.81
2017-04-03T08:53:11.302Z,38.91
2017-04-03T08:54:11.326Z,39.01
2017-04-03T08:55:11.350Z,38.81
2017-04-03T08:56:11.376Z,39.11
2017-04-03T08:57:11.408Z,39.49
2017-04-03T08:58:11.125Z,39.11
2017-04-03T08:59:11.457Z,38.53
2017-04-03T09:00:11.176Z,39.39
2017-04-03T09:01:11.515Z,38.91
2017-04-03T09:02:11.548Z,38.74
2017-04-03T09:03:11.625Z,39.01
2017-04-03T09:04:11.601Z,38.91
2017-04-03T09:05:11.309Z,38.83
2017-04-03T09:06:11.339Z,39.03
2017-04-03T09:07:11.683Z,37.96
2017-04-03T09:08:11.712Z,38.06
2017-04-03T09:09:11.740Z,37.4
2017-04-03T09:10:11.769Z,36.65
2017-04-03T09:11:11.792Z,36.36
2017-04-03T09:12:11.819Z,35.89
2017-04-03T09:13:11.531Z,35.6
2017-04-03T09:14:11.874Z,35.8
2017-04-03T09:15:11.903Z,35.33
2017-04-03T09:16:11.926Z,34.65
2017-04-03T09:17:11.959Z,34.96
2017-04-03T09:18:11.675Z,34.57
2017-04-03T09:19:12.017Z,34.19
2017-04-03T09:20:11.724Z,34.47
2017-04-03T09:21:12.066Z,34.11
2017-04-03T09:22:12.098Z,33.62
2017-04-03T09:23:12.133Z,33.8
2017-04-03T09:24:12.156Z,33.7
2017-04-03T09:25:12.186Z,34.57
2017-04-03T09:26:12.207Z,34.47
2017-04-03T09:27:12.238Z,34.36
2017-04-03T09:28:11.960Z,34.65
2017-04-03T09:29:12.551Z,34.65
2017-04-03T09:30:12.322Z,34.54
2017-04-03T09:31:12.351Z,34.63
2017-04-03T09:32:12.411Z,34.73
2017-04-03T09:33:12.408Z,35.12
2017-04-03T09:34:12.688Z,34.73
2017-04-03T09:35:12.460Z,35.21
2017-04-03T09:36:12.493Z,35.02
2017-04-03T09:37:12.520Z,35.12
2017-04-03T09:38:12.235Z,35.58
2017-04-03T09:39:12.826Z,35.41
2017-04-03T09:40:12.609Z,35.41
2017-04-03T09:41:12.633Z,35.39
2017-04-03T09:42:12.662Z,36.07
2017-04-03T09:43:12.690Z,35
2017-04-03T09:44:12.968Z,35.1
2017-04-03T09:45:12.427Z,34.81
2017-04-03T09:46:12.457Z,35.39
2017-04-03T09:47:12.801Z,35.39
2017-04-03T09:48:12.831Z,34.91
2017-04-03T09:49:12.799Z,35.2
2017-04-03T09:50:12.576Z,35.1
2017-04-03T09:51:12.601Z,35.1
2017-04-03T09:52:12.941Z,34.91
2017-04-03T09:53:12.970Z,35
2017-04-03T09:54:13.251Z,35
2017-04-03T09:55:12.715Z,35
2017-04-03T09:56:13.056Z,34.52
2017-04-03T09:57:13.085Z,34.42
2017-04-03T09:58:13.110Z,35.29
2017-04-03T09:59:13.391Z,35.2
2017-04-03T10:00:12.847Z,35.29
2017-04-03T10:01:12.884Z,35.29
2017-04-03T10:02:13.225Z,34.91
2017-04-03T10:03:12.941Z,35.1
2017-04-03T10:04:13.221Z,34.91
2017-04-03T10:05:13.303Z,35.39
2017-04-03T10:06:13.028Z,34.42
2017-04-03T10:07:13.372Z,34.71
2017-04-03T10:08:13.393Z,34.71
2017-04-03T10:09:13.678Z,35.12
2017-04-03T10:10:13.447Z,34.73
2017-04-03T10:11:13.476Z,34.44
2017-04-03T10:12:13.509Z,34.92
2017-04-03T10:13:13.540Z,34.81
2017-04-03T10:14:13.566Z,35.02
2017-04-03T10:15:13.595Z,35
2017-04-03T10:16:13.312Z,35
2017-04-03T10:17:13.341Z,35.1
2017-04-03T10:18:13.368Z,34.63
2017-04-03T10:19:13.422Z,34.33
2017-04-03T10:20:13.422Z,34.62
2017-04-03T10:21:13.768Z,33.94
2017-04-03T10:22:13.481Z,34.13
2017-04-03T10:23:13.821Z,34.63
2017-04-03T10:24:13.538Z,34.42
2017-04-03T10:25:13.567Z,34.62
2017-04-03T10:26:13.910Z,34.34
2017-04-03T10:27:13.624Z,33.57
2017-04-03T10:28:13.962Z,32.89
2017-04-03T10:29:13.994Z,33.67
2017-04-03T10:30:14.021Z,33.18
2017-04-03T10:31:14.050Z,34.05
2017-04-03T10:32:14.075Z,34.44
2017-04-03T10:33:14.103Z,34.25
2017-04-03T10:34:14.137Z,34.25
2017-04-03T10:35:13.855Z,34.15
2017-04-03T10:36:14.193Z,34.25
2017-04-03T10:37:14.223Z,34.15
2017-04-03T10:38:14.247Z,34.44
2017-04-03T10:39:14.275Z,34.34
2017-04-03T10:40:14.309Z,34.05
2017-04-03T10:41:14.340Z,34.15
2017-04-03T10:42:14.364Z,34.42
2017-04-03T10:43:14.080Z,34.15
2017-04-03T10:44:14.429Z,34.44
2017-04-03T10:45:14.454Z,34.42
2017-04-03T10:46:14.480Z,34.42
2017-04-03T10:47:14.196Z,34.33
2017-04-03T10:48:14.531Z,34.04
2017-04-03T10:49:14.256Z,33.94
2017-04-03T10:50:14.589Z,33.45
2017-04-03T10:51:14.617Z,33.55
2017-04-03T10:52:14.650Z,33.55
2017-04-03T10:53:14.687Z,34.04
2017-04-03T10:54:14.707Z,33.94
2017-04-03T10:55:14.738Z,33.84
2017-04-03T10:56:14.762Z,33.75
2017-04-03T10:57:14.483Z,33.75
2017-04-03T10:58:14.823Z,33.94
2017-04-03T10:59:14.852Z,34.04
2017-04-03T11:00:14.883Z,33.75
2017-04-03T11:01:14.601Z,33.26
2017-04-03T11:02:14.941Z,33.65
2017-04-03T11:03:14.971Z,33.45
2017-04-03T11:04:14.996Z,33.94
2017-04-03T11:05:15.025Z,33.65
2017-04-03T11:06:15.047Z,34.04
2017-04-03T11:07:15.078Z,33.94
2017-04-03T11:08:15.106Z,33.75
2017-04-03T11:09:15.139Z,33.94
2017-04-03T11:10:15.163Z,33.94
2017-04-03T11:11:15.200Z,34.04
2017-04-03T11:12:15.218Z,34.13
2017-04-03T11:13:15.254Z,33.84
2017-04-03T11:14:15.284Z,33.65
2017-04-03T11:15:15.311Z,34.13
2017-04-03T11:16:15.341Z,34.42
2017-04-03T11:17:15.369Z,34.41
2017-04-03T11:18:15.398Z,34.42
2017-04-03T11:19:15.423Z,33.83
2017-04-03T11:20:15.453Z,34.02
2017-04-03T11:21:15.480Z,33.54
2017-04-03T11:22:15.509Z,33.92
2017-04-03T11:23:15.225Z,33.83
2017-04-03T11:24:15.255Z,34.21
2017-04-03T11:25:15.595Z,34.6
2017-04-03T11:26:15.635Z,34.02
2017-04-03T11:27:15.653Z,34.12
2017-04-03T11:28:15.370Z,34.5
2017-04-03T11:29:15.706Z,34.02
2017-04-03T11:30:15.743Z,34.41
2017-04-03T11:31:15.456Z,34.23
2017-04-03T11:32:15.796Z,34.12
2017-04-03T11:33:15.825Z,34.31
2017-04-03T11:34:15.859Z,34.21
2017-04-03T11:35:15.883Z,34.31
2017-04-03T11:36:15.911Z,34.31
2017-04-03T11:37:15.935Z,33.92
2017-04-03T11:38:15.657Z,34.6
2017-04-03T11:39:15.685Z,34.02
2017-04-03T11:40:16.027Z,34.02
2017-04-03T11:41:16.054Z,34.21
2017-04-03T11:42:16.076Z,34.5
2017-04-03T11:43:15.801Z,34.31
2017-04-03T11:44:15.873Z,34.6
2017-04-03T11:45:16.166Z,34.02
2017-04-03T11:46:16.195Z,34.31
2017-04-03T11:47:16.229Z,34.5
2017-04-03T11:48:16.252Z,34.41
2017-04-03T11:49:16.282Z,34.5
2017-04-03T11:50:16.307Z,34.41
2017-04-03T11:51:16.335Z,34.12
2017-04-03T11:52:16.367Z,32.96
2017-04-03T11:53:16.396Z,31.89
2017-04-03T11:54:16.117Z,32.76
2017-04-03T11:55:16.710Z,33.36
2017-04-03T11:56:16.186Z,33.07
2017-04-03T11:57:16.512Z,33.07
2017-04-03T11:58:16.542Z,33.18
2017-04-03T11:59:16.569Z,33.09
2017-04-03T12:00:16.850Z,33.09
2017-04-03T12:01:16.627Z,32.52
2017-04-03T12:02:16.654Z,32.54
2017-04-03T12:03:16.375Z,32.15
2017-04-03T12:04:16.395Z,32.24
2017-04-03T12:05:16.998Z,32.07
2017-04-03T12:06:16.774Z,31.1
2017-04-03T12:07:16.807Z,30.73
2017-04-03T12:08:16.836Z,30.54
2017-04-03T12:09:16.859Z,30.05
2017-04-03T12:10:16.938Z,30.07
2017-04-03T12:11:16.614Z,29.69
2017-04-03T12:12:16.643Z,29.11
2017-04-03T12:13:16.984Z,28.93
2017-04-03T12:14:16.704Z,28.34
2017-04-03T12:15:17.300Z,28.45
2017-04-03T12:16:17.078Z,28.07
2017-04-03T12:17:17.114Z,28.17
2017-04-03T12:18:17.140Z,27.5
2017-04-03T12:19:17.173Z,27.4
2017-04-03T12:20:17.449Z,27.11
2017-04-03T12:21:17.236Z,26.93
2017-04-03T12:22:17.259Z,27.03
2017-04-03T12:23:17.304Z,26.65
2017-04-03T12:24:17.332Z,26.46
2017-04-03T12:25:17.608Z,26.55
2017-04-03T12:26:17.394Z,25.98
2017-04-03T12:27:17.422Z,26.08
2017-04-03T12:28:17.446Z,25.69
2017-04-03T12:29:17.483Z,25.49
2017-04-03T12:30:17.516Z,25.51
2017-04-03T12:31:17.549Z,25.3
2017-04-03T12:32:17.577Z,25.31
2017-04-03T12:33:17.300Z,25.02
2017-04-03T12:34:17.648Z,24.93
2017-04-03T12:35:17.675Z,24.63
2017-04-03T12:36:17.397Z,24.34
2017-04-03T12:37:17.426Z,25.12
2017-04-03T12:38:17.766Z,25.21
2017-04-03T12:39:17.803Z,25.02
2017-04-03T12:40:17.836Z,24.73
2017-04-03T12:41:17.868Z,25.21
2017-04-03T12:42:17.897Z,25.1
2017-04-03T12:43:17.934Z,24.52
2017-04-03T12:44:17.650Z,25.01
2017-04-03T12:45:17.994Z,25.1
2017-04-03T12:46:18.023Z,25.09
2017-04-03T12:47:18.068Z,25.19
2017-04-03T12:48:17.777Z,25.67
2017-04-03T12:49:18.118Z,25.47
2017-04-03T12:50:18.151Z,25.57
2017-04-03T12:51:17.868Z,25.65
2017-04-03T12:52:17.900Z,25.65
2017-04-03T12:53:17.920Z,26.23
2017-04-03T12:54:18.283Z,26.42
2017-04-03T12:55:18.308Z,26.81
2017-04-03T12:56:18.339Z,26.71
2017-04-03T12:57:18.369Z,26.89